Chester, ID (83421)

7:40 AM MDT on August 01, 2014 (GMT -0600)
Parkinson Seed Farm, Saint Anthony (KIDASHTO6) Elev 5358 ft | 43.94 °N, 111.48 °W | Change Station

Current weather conditions updated 11 seconds ago

Clear
Clear
54.0 °F
Feels Like 54.0 °F
N
2.0
Wind Variable Wind from SSE
Gusts 4.0 mph

Today is forecast to be Warmer than yesterday.

Today
High -- | Low -- °F
--% Chance of Precip.
Yesterday
High -- | Low -- °F
Precip. -- in
6:14 AM 8:49 PM
Waxing Crescent, 26% visible
Pressure 30.10 in
Visibility 10.0 miles
Clouds Clear
Dew Point 44 °F
Humidity 69%
Rainfall 0.00 in
Snow Depth Not available.
UV 0 out of 12
Pollen 5.90 out of 12
Air Quality Not available.
Flu Activity Not available.
METAR KRXE 011253Z AUTO 00000KT 10SM CLR 10/07 A3022 RMK AO2 SLP193 T01000072

More Conditions Fewer Conditions

Pressure 30.10 in
Visibility 10.0 miles
Clouds Clear
Dew Point 44 °F
Humidity 69%
Rainfall 0.00 in
Snow Depth Not available.
UV 0 out of 12
Pollen 5.90 out of 12
Air Quality Not available.
Flu Activity Not available.
METAR KRXE 011253Z AUTO 00000KT 10SM CLR 10/07 A3022 RMK AO2 SLP193 T01000072

More Conditions Fewer Conditions

10-Day Weather Forecast

Almanac

Astronomy

Aug. 01, 2014 Rise Set
Actual Time 6:14 AM MDT 8:49 PM MDT
Civil Twilight 5:41 AM MDT 9:22 PM MDT
Nautical Twilight 5:00 AM MDT 10:03 PM MDT
Astronomical Twilight 4:13 AM MDT 10:50 PM MDT
Moon 11:55 AM MDT 11:22 PM MDT
Length of Visible Light 15h 41m
Length of Day
14h 35m
Tomorrow will be 2m 19s shorter.
Waxing Crescent, 26% of the Moon is Illuminated
Today
Waxing Crescent
Aug 3
First Quarter
Aug 10
Full
Aug 17
Last Quarter
Aug 25
New

Today's Extremes

State Highs State Lows

Community

WunderPhotos

Upload Photos

1,739,557 photos uploaded!

Nearby

Snow Depth

Station Depth Elevation
Island Park 0 in 6290 ft
Sheep Mountain 0 in 6570 ft
Somsen Ranch 1 in 6800 ft
Hilts Creek 0 in 8000 ft
Wildhorse Divide 1 in 6490 ft

Earthquake Activity

City Distance Mag. Time & Date
Dillon, Montana 105 miles 3.9 6:51 AM MDT
2014-07-28
Minimum magnitude displayed is 2.5.

Coastal Water Temperatures

Place Temperature
No Stations Reporting

Nearby Weather Stations

Station Location Temp. Dew Point Humidity Wind Precip. Elev Updated Type
Parkinson Seed Farm, Saint Anthony, Ashton, ID 54.0 °F 44 °F 69% SSE  at  2.0 mph 0.00 in / hr 5358 ft 7:40 AM MDT Rapid Fire
Fremont County Courthouse, St Anthony, ID 56.5 °F 46 °F 69% NNE  at  4.0 mph 0.00 in / hr 4972 ft 7:40 AM MDT Rapid Fire
Ashton Community Pharmacy-23 S 8th St, Ashton, ID 53.8 °F 45 °F 73% ESE  at  1.0 mph 0.00 in / hr 5260 ft 7:40 AM MDT Normal
RAWS GAS CAVES ID, Saint Anthony, ID 55 °F 42 °F 62% North  at  7 mph 0.00 in / hr 5774 ft 6:23 AM MDT MADIS
RAWS MOODY ID, Ririe, ID 57 °F 39 °F 50% SW  at  2 mph 0.00 in / hr 6837 ft 6:25 AM MDT MADIS

Show More Stations Show Fewer Stations